sensor_id;sensor_type;location;lat;lon;timestamp;P1;durP1;ratioP1;P2;durP2;ratioP2
11829;SDS011;5972;42.134;24.718;2023-08-17T00:01:40;8.30;;;3.40;;
11829;SDS011;5972;42.134;24.718;2023-08-17T00:04:07;8.32;;;3.20;;
11829;SDS011;5972;42.134;24.718;2023-08-17T00:06:34;7.68;;;3.80;;
11829;SDS011;5972;42.134;24.718;2023-08-17T00:09:00;10.50;;;3.45;;
11829;SDS011;5972;42.134;24.718;2023-08-17T00:11:29;7.45;;;3.80;;
11829;SDS011;5972;42.134;24.718;2023-08-17T00:13:55;5.53;;;3.65;;
11829;SDS011;5972;42.134;24.718;2023-08-17T00:16:22;10.05;;;3.72;;
11829;SDS011;5972;42.134;24.718;2023-08-17T00:18:51;9.15;;;4.22;;
11829;SDS011;5972;42.134;24.718;2023-08-17T00:21:17;6.43;;;4.00;;
11829;SDS011;5972;42.134;24.718;2023-08-17T00:23:44;6.32;;;3.33;;
11829;SDS011;5972;42.134;24.718;2023-08-17T00:26:11;7.47;;;4.00;;
11829;SDS011;5972;42.134;24.718;2023-08-17T00:28:39;7.45;;;4.50;;
11829;SDS011;5972;42.134;24.718;2023-08-17T00:31:06;9.15;;;3.85;;
11829;SDS011;5972;42.134;24.718;2023-08-17T00:33:32;5.40;;;3.80;;
11829;SDS011;5972;42.134;24.718;2023-08-17T00:36:01;7.28;;;3.90;;
11829;SDS011;5972;42.134;24.718;2023-08-17T00:38:27;8.23;;;3.80;;
11829;SDS011;5972;42.134;24.718;2023-08-17T00:40:54;5.82;;;3.83;;
11829;SDS011;5972;42.134;24.718;2023-08-17T00:43:21;8.60;;;3.78;;
11829;SDS011;5972;42.134;24.718;2023-08-17T00:45:48;12.75;;;4.20;;
11829;SDS011;5972;42.134;24.718;2023-08-17T00:48:14;9.77;;;4.05;;
11829;SDS011;5972;42.134;24.718;2023-08-17T00:50:41;9.98;;;4.18;;
11829;SDS011;5972;42.134;24.718;2023-08-17T00:53:11;10.30;;;4.20;;
11829;SDS011;5972;42.134;24.718;2023-08-17T00:55:38;8.55;;;3.72;;
11829;SDS011;5972;42.134;24.718;2023-08-17T00:58:05;8.07;;;3.88;;
11829;SDS011;5972;42.134;24.718;2023-08-17T01:00:32;6.18;;;3.92;;
11829;SDS011;5972;42.134;24.718;2023-08-17T01:02:59;6.07;;;3.28;;
11829;SDS011;5972;42.134;24.718;2023-08-17T01:05:26;11.00;;;3.20;;
11829;SDS011;5972;42.134;24.718;2023-08-17T01:07:53;9.45;;;3.80;;
11829;SDS011;5972;42.134;24.718;2023-08-17T01:10:21;7.38;;;3.08;;
11829;SDS011;5972;42.134;24.718;2023-08-17T01:12:50;6.47;;;3.63;;
11829;SDS011;5972;42.134;24.718;2023-08-17T01:15:27;5.72;;;3.28;;
11829;SDS011;5972;42.134;24.718;2023-08-17T01:18:04;8.00;;;3.50;;
11829;SDS011;5972;42.134;24.718;2023-08-17T01:20:48;5.75;;;3.53;;
11829;SDS011;5972;42.134;24.718;2023-08-17T01:23:17;5.32;;;3.42;;
11829;SDS011;5972;42.134;24.718;2023-08-17T01:25:43;4.93;;;3.40;;
11829;SDS011;5972;42.134;24.718;2023-08-17T01:28:10;6.00;;;3.85;;
11829;SDS011;5972;42.134;24.718;2023-08-17T01:30:38;5.18;;;3.55;;
11829;SDS011;5972;42.134;24.718;2023-08-17T01:33:11;9.07;;;4.18;;
11829;SDS011;5972;42.134;24.718;2023-08-17T01:35:46;10.65;;;3.85;;
11829;SDS011;5972;42.134;24.718;2023-08-17T01:38:26;6.97;;;3.88;;
11829;SDS011;5972;42.134;24.718;2023-08-17T01:40:56;8.32;;;3.92;;
11829;SDS011;5972;42.134;24.718;2023-08-17T01:43:24;8.73;;;3.70;;
11829;SDS011;5972;42.134;24.718;2023-08-17T01:45:53;6.00;;;3.90;;
11829;SDS011;5972;42.134;24.718;2023-08-17T01:48:20;8.15;;;3.90;;
11829;SDS011;5972;42.134;24.718;2023-08-17T01:50:47;9.23;;;4.00;;
11829;SDS011;5972;42.134;24.718;2023-08-17T01:53:13;9.25;;;3.97;;
11829;SDS011;5972;42.134;24.718;2023-08-17T01:55:41;9.48;;;4.15;;
11829;SDS011;5972;42.134;24.718;2023-08-17T01:58:08;9.85;;;4.32;;
11829;SDS011;5972;42.134;24.718;2023-08-17T02:00:35;7.10;;;4.25;;
11829;SDS011;5972;42.134;24.718;2023-08-17T02:03:01;11.07;;;4.30;;
11829;SDS011;5972;42.134;24.718;2023-08-17T02:05:28;6.90;;;4.40;;
11829;SDS011;5972;42.134;24.718;2023-08-17T02:07:55;6.10;;;4.18;;
11829;SDS011;5972;42.134;24.718;2023-08-17T02:10:22;10.00;;;4.93;;
11829;SDS011;5972;42.134;24.718;2023-08-17T02:12:50;12.18;;;4.68;;
11829;SDS011;5972;42.134;24.718;2023-08-17T02:15:17;9.48;;;4.55;;
11829;SDS011;5972;42.134;24.718;2023-08-17T02:17:43;11.07;;;4.60;;
11829;SDS011;5972;42.134;24.718;2023-08-17T02:20:10;13.43;;;4.25;;
11829;SDS011;5972;42.134;24.718;2023-08-17T02:22:38;9.27;;;4.80;;
11829;SDS011;5972;42.134;24.718;2023-08-17T02:25:06;12.73;;;4.43;;
11829;SDS011;5972;42.134;24.718;2023-08-17T02:27:33;8.23;;;4.40;;
11829;SDS011;5972;42.134;24.718;2023-08-17T02:30:01;7.63;;;4.25;;
11829;SDS011;5972;42.134;24.718;2023-08-17T02:32:28;6.82;;;4.07;;
11829;SDS011;5972;42.134;24.718;2023-08-17T02:34:55;12.10;;;4.38;;
11829;SDS011;5972;42.134;24.718;2023-08-17T02:37:22;11.65;;;4.43;;
11829;SDS011;5972;42.134;24.718;2023-08-17T02:39:49;7.90;;;4.40;;
11829;SDS011;5972;42.134;24.718;2023-08-17T02:42:15;6.85;;;4.10;;
11829;SDS011;5972;42.134;24.718;2023-08-17T02:44:42;8.88;;;4.38;;
11829;SDS011;5972;42.134;24.718;2023-08-17T02:47:10;6.05;;;3.80;;
11829;SDS011;5972;42.134;24.718;2023-08-17T02:49:38;8.45;;;4.10;;
11829;SDS011;5972;42.134;24.718;2023-08-17T02:52:05;4.05;;;3.50;;
11829;SDS011;5972;42.134;24.718;2023-08-17T02:54:33;6.85;;;4.00;;
11829;SDS011;5972;42.134;24.718;2023-08-17T02:57:00;8.88;;;4.07;;
11829;SDS011;5972;42.134;24.718;2023-08-17T02:59:26;10.65;;;3.88;;
11829;SDS011;5972;42.134;24.718;2023-08-17T03:01:53;6.68;;;3.65;;
11829;SDS011;5972;42.134;24.718;2023-08-17T03:04:22;7.45;;;3.97;;
11829;SDS011;5972;42.134;24.718;2023-08-17T03:06:49;6.38;;;3.67;;
11829;SDS011;5972;42.134;24.718;2023-08-17T03:09:16;7.35;;;3.47;;
11829;SDS011;5972;42.134;24.718;2023-08-17T03:11:43;5.13;;;3.80;;
11829;SDS011;5972;42.134;24.718;2023-08-17T03:14:09;8.13;;;3.65;;
11829;SDS011;5972;42.134;24.718;2023-08-17T03:16:36;8.73;;;3.60;;
11829;SDS011;5972;42.134;24.718;2023-08-17T03:19:03;10.50;;;3.38;;
11829;SDS011;5972;42.134;24.718;2023-08-17T03:21:34;8.68;;;3.97;;
11829;SDS011;5972;42.134;24.718;2023-08-17T03:24:00;18.42;;;4.68;;
11829;SDS011;5972;42.134;24.718;2023-08-17T03:26:27;4.90;;;3.60;;
11829;SDS011;5972;42.134;24.718;2023-08-17T03:28:54;8.15;;;3.70;;
11829;SDS011;5972;42.134;24.718;2023-08-17T03:31:21;8.40;;;3.55;;
11829;SDS011;5972;42.134;24.718;2023-08-17T03:33:47;7.53;;;3.20;;
11829;SDS011;5972;42.134;24.718;2023-08-17T03:36:14;8.95;;;3.47;;
11829;SDS011;5972;42.134;24.718;2023-08-17T03:38:42;7.85;;;3.88;;
11829;SDS011;5972;42.134;24.718;2023-08-17T03:41:10;8.82;;;3.72;;
11829;SDS011;5972;42.134;24.718;2023-08-17T03:43:37;8.65;;;3.40;;
11829;SDS011;5972;42.134;24.718;2023-08-17T03:46:04;3.75;;;3.40;;
11829;SDS011;5972;42.134;24.718;2023-08-17T03:48:30;9.75;;;3.80;;
11829;SDS011;5972;42.134;24.718;2023-08-17T03:50:57;8.23;;;4.03;;
11829;SDS011;5972;42.134;24.718;2023-08-17T03:53:26;10.68;;;4.28;;
11829;SDS011;5972;42.134;24.718;2023-08-17T03:55:54;12.25;;;4.20;;
11829;SDS011;5972;42.134;24.718;2023-08-17T03:58:21;6.95;;;3.55;;
11829;SDS011;5972;42.134;24.718;2023-08-17T04:00:51;5.60;;;3.40;;
11829;SDS011;5972;42.134;24.718;2023-08-17T04:03:18;6.40;;;3.30;;
11829;SDS011;5972;42.134;24.718;2023-08-17T04:05:45;6.63;;;3.53;;
11829;SDS011;5972;42.134;24.718;2023-08-17T04:08:12;8.75;;;3.88;;
11829;SDS011;5972;42.134;24.718;2023-08-17T04:10:38;10.30;;;3.85;;
11829;SDS011;5972;42.134;24.718;2023-08-17T04:13:07;11.57;;;3.90;;
11829;SDS011;5972;42.134;24.718;2023-08-17T04:15:33;7.57;;;3.50;;
11829;SDS011;5972;42.134;24.718;2023-08-17T04:18:00;9.45;;;3.53;;
11829;SDS011;5972;42.134;24.718;2023-08-17T04:20:27;7.10;;;3.88;;
11829;SDS011;5972;42.134;24.718;2023-08-17T04:22:53;6.93;;;3.83;;
11829;SDS011;5972;42.134;24.718;2023-08-17T04:25:20;9.55;;;4.03;;
11829;SDS011;5972;42.134;24.718;2023-08-17T04:27:47;8.68;;;3.92;;
11829;SDS011;5972;42.134;24.718;2023-08-17T04:30:15;7.80;;;3.80;;
11829;SDS011;5972;42.134;24.718;2023-08-17T04:32:42;10.82;;;4.25;;
11829;SDS011;5972;42.134;24.718;2023-08-17T04:35:08;10.70;;;3.92;;
11829;SDS011;5972;42.134;24.718;2023-08-17T04:37:36;9.20;;;4.25;;
11829;SDS011;5972;42.134;24.718;2023-08-17T04:40:03;8.85;;;4.30;;
11829;SDS011;5972;42.134;24.718;2023-08-17T04:42:30;11.60;;;4.35;;
11829;SDS011;5972;42.134;24.718;2023-08-17T04:44:57;14.57;;;4.20;;
11829;SDS011;5972;42.134;24.718;2023-08-17T04:47:25;8.10;;;4.47;;
11829;SDS011;5972;42.134;24.718;2023-08-17T04:49:51;18.48;;;4.90;;
11829;SDS011;5972;42.134;24.718;2023-08-17T04:52:18;20.65;;;4.82;;
11829;SDS011;5972;42.134;24.718;2023-08-17T04:54:45;9.27;;;4.72;;
11829;SDS011;5972;42.134;24.718;2023-08-17T04:57:11;10.00;;;4.40;;
11829;SDS011;5972;42.134;24.718;2023-08-17T04:59:38;9.90;;;4.70;;
11829;SDS011;5972;42.134;24.718;2023-08-17T05:02:06;12.45;;;5.03;;
11829;SDS011;5972;42.134;24.718;2023-08-17T05:04:34;10.63;;;4.45;;
11829;SDS011;5972;42.134;24.718;2023-08-17T05:07:01;7.32;;;4.70;;
11829;SDS011;5972;42.134;24.718;2023-08-17T05:09:28;13.80;;;4.68;;
11829;SDS011;5972;42.134;24.718;2023-08-17T05:11:55;11.02;;;4.32;;
11829;SDS011;5972;42.134;24.718;2023-08-17T05:14:29;14.52;;;4.63;;
11829;SDS011;5972;42.134;24.718;2023-08-17T05:16:56;7.40;;;4.22;;
11829;SDS011;5972;42.134;24.718;2023-08-17T05:19:22;12.63;;;3.88;;
11829;SDS011;5972;42.134;24.718;2023-08-17T05:21:50;4.35;;;3.95;;
11829;SDS011;5972;42.134;24.718;2023-08-17T05:24:18;10.90;;;4.03;;
11829;SDS011;5972;42.134;24.718;2023-08-17T05:26:46;10.65;;;4.03;;
11829;SDS011;5972;42.134;24.718;2023-08-17T05:29:13;11.23;;;4.20;;
11829;SDS011;5972;42.134;24.718;2023-08-17T05:31:40;7.47;;;4.05;;
11829;SDS011;5972;42.134;24.718;2023-08-17T05:34:06;12.02;;;4.25;;
11829;SDS011;5972;42.134;24.718;2023-08-17T05:36:33;14.88;;;3.97;;
11829;SDS011;5972;42.134;24.718;2023-08-17T05:39:01;9.85;;;4.15;;
11829;SDS011;5972;42.134;24.718;2023-08-17T05:41:29;7.28;;;3.80;;
11829;SDS011;5972;42.134;24.718;2023-08-17T05:43:55;13.95;;;4.55;;
11829;SDS011;5972;42.134;24.718;2023-08-17T05:46:22;13.38;;;4.60;;
11829;SDS011;5972;42.134;24.718;2023-08-17T05:48:49;12.77;;;4.70;;
11829;SDS011;5972;42.134;24.718;2023-08-17T05:51:16;11.00;;;4.38;;
11829;SDS011;5972;42.134;24.718;2023-08-17T05:53:42;13.65;;;4.68;;
11829;SDS011;5972;42.134;24.718;2023-08-17T05:56:10;14.20;;;4.60;;
11829;SDS011;5972;42.134;24.718;2023-08-17T05:58:37;12.32;;;4.72;;
11829;SDS011;5972;42.134;24.718;2023-08-17T06:01:04;9.40;;;3.95;;
11829;SDS011;5972;42.134;24.718;2023-08-17T06:03:32;13.68;;;4.90;;
11829;SDS011;5972;42.134;24.718;2023-08-17T06:05:59;10.55;;;3.85;;
11829;SDS011;5972;42.134;24.718;2023-08-17T06:08:26;11.93;;;3.90;;
11829;SDS011;5972;42.134;24.718;2023-08-17T06:10:53;13.68;;;4.13;;
11829;SDS011;5972;42.134;24.718;2023-08-17T06:13:21;9.57;;;3.50;;
11829;SDS011;5972;42.134;24.718;2023-08-17T06:15:48;9.93;;;3.33;;
11829;SDS011;5972;42.134;24.718;2023-08-17T06:18:15;11.93;;;3.72;;
11829;SDS011;5972;42.134;24.718;2023-08-17T06:20:42;9.18;;;3.83;;
11829;SDS011;5972;42.134;24.718;2023-08-17T06:23:11;7.88;;;3.53;;
11829;SDS011;5972;42.134;24.718;2023-08-17T06:25:38;8.48;;;3.40;;
11829;SDS011;5972;42.134;24.718;2023-08-17T06:28:05;8.98;;;3.53;;
11829;SDS011;5972;42.134;24.718;2023-08-17T06:30:34;7.40;;;3.25;;
11829;SDS011;5972;42.134;24.718;2023-08-17T06:33:00;9.55;;;3.58;;
11829;SDS011;5972;42.134;24.718;2023-08-17T06:35:27;6.63;;;3.10;;
11829;SDS011;5972;42.134;24.718;2023-08-17T06:37:54;8.65;;;3.30;;
11829;SDS011;5972;42.134;24.718;2023-08-17T06:40:22;9.18;;;3.30;;
11829;SDS011;5972;42.134;24.718;2023-08-17T06:42:49;9.95;;;3.10;;
11829;SDS011;5972;42.134;24.718;2023-08-17T06:45:17;9.65;;;3.05;;
11829;SDS011;5972;42.134;24.718;2023-08-17T06:47:45;6.70;;;3.30;;
11829;SDS011;5972;42.134;24.718;2023-08-17T06:50:13;4.72;;;3.13;;
11829;SDS011;5972;42.134;24.718;2023-08-17T06:52:40;7.22;;;3.15;;
11829;SDS011;5972;42.134;24.718;2023-08-17T06:55:07;7.65;;;3.03;;
11829;SDS011;5972;42.134;24.718;2023-08-17T06:57:35;6.60;;;3.20;;
11829;SDS011;5972;42.134;24.718;2023-08-17T07:00:02;8.05;;;3.28;;
11829;SDS011;5972;42.134;24.718;2023-08-17T07:02:30;7.68;;;3.10;;
11829;SDS011;5972;42.134;24.718;2023-08-17T07:04:58;6.75;;;2.97;;
11829;SDS011;5972;42.134;24.718;2023-08-17T07:07:25;7.25;;;2.78;;
11829;SDS011;5972;42.134;24.718;2023-08-17T07:09:51;5.22;;;3.00;;
11829;SDS011;5972;42.134;24.718;2023-08-17T07:12:18;6.35;;;3.10;;
11829;SDS011;5972;42.134;24.718;2023-08-17T07:14:45;4.97;;;3.10;;
11829;SDS011;5972;42.134;24.718;2023-08-17T07:17:11;4.68;;;2.72;;
11829;SDS011;5972;42.134;24.718;2023-08-17T07:19:38;6.18;;;3.13;;
11829;SDS011;5972;42.134;24.718;2023-08-17T07:22:06;7.50;;;3.10;;
11829;SDS011;5972;42.134;24.718;2023-08-17T07:24:33;4.70;;;3.33;;
11829;SDS011;5972;42.134;24.718;2023-08-17T07:27:00;4.90;;;3.25;;
11829;SDS011;5972;42.134;24.718;2023-08-17T07:29:27;7.85;;;3.17;;
11829;SDS011;5972;42.134;24.718;2023-08-17T07:31:54;5.50;;;2.83;;
11829;SDS011;5972;42.134;24.718;2023-08-17T07:34:23;8.75;;;2.97;;
11829;SDS011;5972;42.134;24.718;2023-08-17T07:36:50;6.85;;;2.97;;
11829;SDS011;5972;42.134;24.718;2023-08-17T07:39:21;5.32;;;2.60;;
11829;SDS011;5972;42.134;24.718;2023-08-17T07:41:48;5.18;;;2.72;;
11829;SDS011;5972;42.134;24.718;2023-08-17T07:44:15;6.40;;;3.15;;
11829;SDS011;5972;42.134;24.718;2023-08-17T07:46:41;7.65;;;2.88;;
11829;SDS011;5972;42.134;24.718;2023-08-17T07:49:08;5.13;;;3.00;;
11829;SDS011;5972;42.134;24.718;2023-08-17T07:51:35;8.48;;;2.67;;
11829;SDS011;5972;42.134;24.718;2023-08-17T07:54:02;5.88;;;2.60;;
11829;SDS011;5972;42.134;24.718;2023-08-17T07:56:30;9.00;;;2.90;;
11829;SDS011;5972;42.134;24.718;2023-08-17T07:58:57;3.95;;;2.70;;
11829;SDS011;5972;42.134;24.718;2023-08-17T08:01:23;4.53;;;2.88;;
11829;SDS011;5972;42.134;24.718;2023-08-17T08:03:50;5.85;;;3.03;;
11829;SDS011;5972;42.134;24.718;2023-08-17T08:06:17;7.10;;;2.72;;
11829;SDS011;5972;42.134;24.718;2023-08-17T08:08:45;5.82;;;2.55;;
11829;SDS011;5972;42.134;24.718;2023-08-17T08:11:12;10.55;;;2.67;;
11829;SDS011;5972;42.134;24.718;2023-08-17T08:13:40;5.30;;;2.92;;
11829;SDS011;5972;42.134;24.718;2023-08-17T08:16:07;6.95;;;2.60;;
11829;SDS011;5972;42.134;24.718;2023-08-17T08:18:33;4.82;;;2.70;;
11829;SDS011;5972;42.134;24.718;2023-08-17T08:21:00;5.68;;;2.70;;
11829;SDS011;5972;42.134;24.718;2023-08-17T08:23:27;3.60;;;2.20;;
11829;SDS011;5972;42.134;24.718;2023-08-17T08:25:54;4.07;;;2.40;;
11829;SDS011;5972;42.134;24.718;2023-08-17T08:28:23;8.02;;;2.63;;
11829;SDS011;5972;42.134;24.718;2023-08-17T08:30:51;3.70;;;2.63;;
11829;SDS011;5972;42.134;24.718;2023-08-17T08:33:18;7.47;;;2.97;;
11829;SDS011;5972;42.134;24.718;2023-08-17T08:35:45;4.22;;;2.47;;
11829;SDS011;5972;42.134;24.718;2023-08-17T08:38:12;5.38;;;2.67;;
11829;SDS011;5972;42.134;24.718;2023-08-17T08:40:39;7.03;;;2.60;;
11829;SDS011;5972;42.134;24.718;2023-08-17T08:43:08;6.85;;;2.60;;
11829;SDS011;5972;42.134;24.718;2023-08-17T08:45:35;6.95;;;2.60;;
11829;SDS011;5972;42.134;24.718;2023-08-17T08:48:05;8.38;;;2.50;;
11829;SDS011;5972;42.134;24.718;2023-08-17T08:50:33;7.80;;;3.00;;
11829;SDS011;5972;42.134;24.718;2023-08-17T08:53:02;3.97;;;2.30;;
11829;SDS011;5972;42.134;24.718;2023-08-17T08:55:30;4.65;;;2.30;;
11829;SDS011;5972;42.134;24.718;2023-08-17T08:58:00;4.93;;;2.60;;
11829;SDS011;5972;42.134;24.718;2023-08-17T09:00:30;13.15;;;2.63;;
11829;SDS011;5972;42.134;24.718;2023-08-17T09:02:57;3.50;;;2.40;;
11829;SDS011;5972;42.134;24.718;2023-08-17T09:05:26;5.20;;;2.10;;
11829;SDS011;5972;42.134;24.718;2023-08-17T09:07:53;6.20;;;2.83;;
11829;SDS011;5972;42.134;24.718;2023-08-17T09:10:22;3.08;;;2.20;;
11829;SDS011;5972;42.134;24.718;2023-08-17T09:12:49;3.75;;;2.47;;
11829;SDS011;5972;42.134;24.718;2023-08-17T09:15:16;3.88;;;2.45;;
11829;SDS011;5972;42.134;24.718;2023-08-17T09:17:43;6.28;;;2.80;;
11829;SDS011;5972;42.134;24.718;2023-08-17T09:20:10;10.68;;;2.75;;
11829;SDS011;5972;42.134;24.718;2023-08-17T09:22:39;3.90;;;2.30;;
11829;SDS011;5972;42.134;24.718;2023-08-17T09:25:07;9.38;;;2.45;;
11829;SDS011;5972;42.134;24.718;2023-08-17T09:27:35;9.60;;;2.42;;
11829;SDS011;5972;42.134;24.718;2023-08-17T09:30:02;5.38;;;2.65;;
11829;SDS011;5972;42.134;24.718;2023-08-17T09:32:30;7.72;;;2.40;;
11829;SDS011;5972;42.134;24.718;2023-08-17T09:34:57;7.60;;;2.70;;
11829;SDS011;5972;42.134;24.718;2023-08-17T09:37:27;6.22;;;2.60;;
11829;SDS011;5972;42.134;24.718;2023-08-17T09:39:55;4.05;;;2.45;;
11829;SDS011;5972;42.134;24.718;2023-08-17T09:42:22;2.97;;;2.55;;
11829;SDS011;5972;42.134;24.718;2023-08-17T09:44:50;8.32;;;2.80;;
11829;SDS011;5972;42.134;24.718;2023-08-17T09:47:17;4.05;;;2.40;;
11829;SDS011;5972;42.134;24.718;2023-08-17T09:49:47;5.57;;;2.47;;
11829;SDS011;5972;42.134;24.718;2023-08-17T09:52:14;6.53;;;2.70;;
11829;SDS011;5972;42.134;24.718;2023-08-17T09:54:41;6.75;;;2.95;;
11829;SDS011;5972;42.134;24.718;2023-08-17T09:57:11;4.95;;;2.50;;
11829;SDS011;5972;42.134;24.718;2023-08-17T09:59:38;2.75;;;2.42;;
11829;SDS011;5972;42.134;24.718;2023-08-17T10:02:07;4.65;;;2.40;;
11829;SDS011;5972;42.134;24.718;2023-08-17T10:04:49;6.22;;;2.50;;
11829;SDS011;5972;42.134;24.718;2023-08-17T10:07:18;4.78;;;2.35;;
11829;SDS011;5972;42.134;24.718;2023-08-17T10:09:47;6.88;;;2.50;;
11829;SDS011;5972;42.134;24.718;2023-08-17T10:12:20;4.70;;;2.42;;
11829;SDS011;5972;42.134;24.718;2023-08-17T10:14:54;3.63;;;2.28;;
11829;SDS011;5972;42.134;24.718;2023-08-17T10:17:25;7.20;;;2.42;;
11829;SDS011;5972;42.134;24.718;2023-08-17T10:19:54;3.83;;;2.60;;
11829;SDS011;5972;42.134;24.718;2023-08-17T10:22:26;6.45;;;2.72;;
11829;SDS011;5972;42.134;24.718;2023-08-17T10:24:57;13.57;;;2.55;;
11829;SDS011;5972;42.134;24.718;2023-08-17T10:27:25;4.38;;;2.47;;
11829;SDS011;5972;42.134;24.718;2023-08-17T10:29:53;4.38;;;2.20;;
11829;SDS011;5972;42.134;24.718;2023-08-17T10:32:21;6.68;;;2.63;;
11829;SDS011;5972;42.134;24.718;2023-08-17T10:34:49;4.88;;;2.45;;
11829;SDS011;5972;42.134;24.718;2023-08-17T10:37:17;6.07;;;2.40;;
11829;SDS011;5972;42.134;24.718;2023-08-17T10:39:45;5.07;;;2.47;;
11829;SDS011;5972;42.134;24.718;2023-08-17T10:42:13;5.95;;;2.40;;
11829;SDS011;5972;42.134;24.718;2023-08-17T10:44:44;2.58;;;1.90;;
11829;SDS011;5972;42.134;24.718;2023-08-17T10:47:21;4.97;;;2.45;;
11829;SDS011;5972;42.134;24.718;2023-08-17T10:49:49;3.50;;;2.10;;
11829;SDS011;5972;42.134;24.718;2023-08-17T10:52:24;6.35;;;2.53;;
11829;SDS011;5972;42.134;24.718;2023-08-17T10:54:55;7.97;;;2.30;;
11829;SDS011;5972;42.134;24.718;2023-08-17T10:57:29;6.53;;;2.33;;
11829;SDS011;5972;42.134;24.718;2023-08-17T11:00:15;3.97;;;2.13;;
11829;SDS011;5972;42.134;24.718;2023-08-17T11:02:45;7.28;;;2.40;;
11829;SDS011;5972;42.134;24.718;2023-08-17T11:05:33;3.15;;;2.30;;
11829;SDS011;5972;42.134;24.718;2023-08-17T11:08:01;7.68;;;2.30;;
11829;SDS011;5972;42.134;24.718;2023-08-17T11:10:28;3.05;;;2.20;;
11829;SDS011;5972;42.134;24.718;2023-08-17T11:12:55;3.60;;;2.30;;
11829;SDS011;5972;42.134;24.718;2023-08-17T11:15:26;5.50;;;2.10;;
11829;SDS011;5972;42.134;24.718;2023-08-17T11:18:03;5.90;;;2.33;;
11829;SDS011;5972;42.134;24.718;2023-08-17T11:20:30;5.72;;;2.40;;
11829;SDS011;5972;42.134;24.718;2023-08-17T11:22:57;4.18;;;2.33;;
11829;SDS011;5972;42.134;24.718;2023-08-17T11:25:25;4.05;;;2.13;;
11829;SDS011;5972;42.134;24.718;2023-08-17T11:27:52;4.40;;;2.30;;
11829;SDS011;5972;42.134;24.718;2023-08-17T11:30:20;5.03;;;2.17;;
11829;SDS011;5972;42.134;24.718;2023-08-17T11:32:49;5.90;;;2.25;;
11829;SDS011;5972;42.134;24.718;2023-08-17T11:35:17;8.48;;;2.70;;
11829;SDS011;5972;42.134;24.718;2023-08-17T11:37:44;6.45;;;2.40;;
11829;SDS011;5972;42.134;24.718;2023-08-17T11:40:10;3.55;;;2.20;;
11829;SDS011;5972;42.134;24.718;2023-08-17T11:42:37;4.72;;;2.47;;
11829;SDS011;5972;42.134;24.718;2023-08-17T11:45:05;5.22;;;2.13;;
11829;SDS011;5972;42.134;24.718;2023-08-17T11:47:34;4.05;;;2.33;;
11829;SDS011;5972;42.134;24.718;2023-08-17T11:50:03;4.18;;;2.47;;
11829;SDS011;5972;42.134;24.718;2023-08-17T11:52:31;4.03;;;2.30;;
11829;SDS011;5972;42.134;24.718;2023-08-17T11:54:58;6.18;;;2.63;;
11829;SDS011;5972;42.134;24.718;2023-08-17T11:57:25;2.72;;;2.53;;
11829;SDS011;5972;42.134;24.718;2023-08-17T11:59:52;3.78;;;2.33;;
11829;SDS011;5972;42.134;24.718;2023-08-17T12:02:19;5.00;;;2.40;;
11829;SDS011;5972;42.134;24.718;2023-08-17T12:04:46;2.33;;;2.00;;
11829;SDS011;5972;42.134;24.718;2023-08-17T12:07:14;6.38;;;2.45;;
11829;SDS011;5972;42.134;24.718;2023-08-17T12:09:41;4.50;;;2.50;;
11829;SDS011;5972;42.134;24.718;2023-08-17T12:12:09;4.32;;;2.40;;
11829;SDS011;5972;42.134;24.718;2023-08-17T12:14:36;6.82;;;2.50;;
11829;SDS011;5972;42.134;24.718;2023-08-17T12:17:06;4.65;;;2.35;;
11829;SDS011;5972;42.134;24.718;2023-08-17T12:19:33;9.52;;;2.38;;
11829;SDS011;5972;42.134;24.718;2023-08-17T12:22:00;6.63;;;2.70;;
11829;SDS011;5972;42.134;24.718;2023-08-17T12:24:29;10.77;;;2.55;;
11829;SDS011;5972;42.134;24.718;2023-08-17T12:26:56;2.75;;;1.92;;
11829;SDS011;5972;42.134;24.718;2023-08-17T12:29:24;2.92;;;1.90;;
11829;SDS011;5972;42.134;24.718;2023-08-17T12:31:51;4.68;;;2.17;;
11829;SDS011;5972;42.134;24.718;2023-08-17T12:34:18;3.65;;;2.53;;
11829;SDS011;5972;42.134;24.718;2023-08-17T12:36:45;1.73;;;1.63;;
11829;SDS011;5972;42.134;24.718;2023-08-17T12:39:11;3.20;;;1.95;;
11829;SDS011;5972;42.134;24.718;2023-08-17T12:41:40;2.95;;;2.08;;
11829;SDS011;5972;42.134;24.718;2023-08-17T12:44:08;2.30;;;2.10;;
11829;SDS011;5972;42.134;24.718;2023-08-17T12:46:37;3.85;;;2.35;;
11829;SDS011;5972;42.134;24.718;2023-08-17T12:49:04;4.38;;;2.33;;
11829;SDS011;5972;42.134;24.718;2023-08-17T12:51:30;2.28;;;2.08;;
11829;SDS011;5972;42.134;24.718;2023-08-17T12:53:57;10.45;;;2.50;;
11829;SDS011;5972;42.134;24.718;2023-08-17T12:56:24;6.43;;;2.17;;
11829;SDS011;5972;42.134;24.718;2023-08-17T12:58:52;12.93;;;2.80;;
11829;SDS011;5972;42.134;24.718;2023-08-17T13:01:19;4.70;;;2.05;;
11829;SDS011;5972;42.134;24.718;2023-08-17T13:03:45;3.38;;;1.92;;
11829;SDS011;5972;42.134;24.718;2023-08-17T13:06:12;7.93;;;2.10;;
11829;SDS011;5972;42.134;24.718;2023-08-17T13:08:39;9.73;;;2.30;;
11829;SDS011;5972;42.134;24.718;2023-08-17T13:11:05;4.15;;;2.30;;
11829;SDS011;5972;42.134;24.718;2023-08-17T13:13:32;6.00;;;2.10;;
11829;SDS011;5972;42.134;24.718;2023-08-17T13:16:00;7.93;;;2.50;;
11829;SDS011;5972;42.134;24.718;2023-08-17T13:18:27;4.07;;;2.20;;
11829;SDS011;5972;42.134;24.718;2023-08-17T13:20:54;4.53;;;2.40;;
11829;SDS011;5972;42.134;24.718;2023-08-17T13:23:21;5.90;;;2.13;;
11829;SDS011;5972;42.134;24.718;2023-08-17T13:25:48;2.90;;;2.20;;
11829;SDS011;5972;42.134;24.718;2023-08-17T13:28:15;3.38;;;2.17;;
11829;SDS011;5972;42.134;24.718;2023-08-17T13:30:41;3.55;;;2.08;;
11829;SDS011;5972;42.134;24.718;2023-08-17T13:33:09;8.32;;;2.10;;
11829;SDS011;5972;42.134;24.718;2023-08-17T13:35:36;5.20;;;2.30;;
11829;SDS011;5972;42.134;24.718;2023-08-17T13:38:03;4.05;;;2.25;;
11829;SDS011;5972;42.134;24.718;2023-08-17T13:40:30;3.30;;;2.50;;
11829;SDS011;5972;42.134;24.718;2023-08-17T13:42:56;5.80;;;2.33;;
11829;SDS011;5972;42.134;24.718;2023-08-17T13:45:24;2.65;;;2.22;;
11829;SDS011;5972;42.134;24.718;2023-08-17T13:47:51;5.80;;;2.50;;
11829;SDS011;5972;42.134;24.718;2023-08-17T13:50:19;5.20;;;2.47;;
11829;SDS011;5972;42.134;24.718;2023-08-17T13:52:46;3.10;;;2.40;;
11829;SDS011;5972;42.134;24.718;2023-08-17T13:55:13;3.75;;;2.50;;
11829;SDS011;5972;42.134;24.718;2023-08-17T13:57:40;3.78;;;2.60;;
11829;SDS011;5972;42.134;24.718;2023-08-17T14:00:07;5.85;;;2.60;;
11829;SDS011;5972;42.134;24.718;2023-08-17T14:02:36;8.30;;;2.40;;
11829;SDS011;5972;42.134;24.718;2023-08-17T14:05:03;7.90;;;2.45;;
11829;SDS011;5972;42.134;24.718;2023-08-17T14:07:32;4.65;;;2.35;;
11829;SDS011;5972;42.134;24.718;2023-08-17T14:09:59;3.00;;;2.40;;
11829;SDS011;5972;42.134;24.718;2023-08-17T14:12:26;3.22;;;2.50;;
11829;SDS011;5972;42.134;24.718;2023-08-17T14:14:52;4.80;;;2.35;;
11829;SDS011;5972;42.134;24.718;2023-08-17T14:17:19;3.33;;;2.15;;
11829;SDS011;5972;42.134;24.718;2023-08-17T14:19:46;6.78;;;2.75;;
11829;SDS011;5972;42.134;24.718;2023-08-17T14:22:12;7.53;;;3.05;;
11829;SDS011;5972;42.134;24.718;2023-08-17T14:24:40;5.05;;;2.75;;
11829;SDS011;5972;42.134;24.718;2023-08-17T14:27:07;4.35;;;2.38;;
11829;SDS011;5972;42.134;24.718;2023-08-17T14:29:34;3.08;;;2.60;;
11829;SDS011;5972;42.134;24.718;2023-08-17T14:32:00;10.60;;;2.45;;
11829;SDS011;5972;42.134;24.718;2023-08-17T14:34:27;5.18;;;2.40;;
11829;SDS011;5972;42.134;24.718;2023-08-17T14:36:54;5.05;;;2.47;;
11829;SDS011;5972;42.134;24.718;2023-08-17T14:39:21;3.80;;;2.60;;
11829;SDS011;5972;42.134;24.718;2023-08-17T14:41:49;4.35;;;2.63;;
11829;SDS011;5972;42.134;24.718;2023-08-17T14:44:17;5.13;;;2.65;;
11829;SDS011;5972;42.134;24.718;2023-08-17T14:46:44;3.53;;;2.28;;
11829;SDS011;5972;42.134;24.718;2023-08-17T14:49:11;3.97;;;2.40;;